Details From LIEA - ALGHERO
To LIMZ - LEVALDIGI
Flight Number -
Tags generated
Created
Modified
Stats Distance 239 nm / 443 km
Max Altitude 28,400 ft / 8,656 m
Waypoints 4
Social Downloads 2
Likes 0
Share VATSIM

Download

Looking for another format? Having issues loading an existing format? Contact us
Advertisement - Login to hide

Notes

Basic altitude profile: - Ascent Rate: 2500ft/min - Ascent Speed: 250kts - Cruise Altitude: 24000ft - Cruise Speed: 290kts - Descent Rate: 1500ft/min - Descent Speed: 200kts Options: - Use NATs: yes - Use PACOTS: yes - Use low airways: yes - Use high airways: yes

Route

LIEA VAREK UM623 OMARD LIMZ

ID Type Via Altitude Latitude Longitude Leg Dist Tot Dist Heading (true) Name
O LIEA APT - 0 ft / 0 m 40.63213˚ 8.29077˚ - 0 nm - ALGHERO
VAREK FIX - 28,400 ft / 8,656 m 42.31306˚ 7.98056˚ 101 nm 101 nm 352° / 352° -
OMARD FIX UM623 (AWY-HI) 18,500 ft / 5,639 m 43.10472˚ 7.59111˚ 50 nm 152 nm 340° / 340° -
O LIMZ APT - 0 ft / 0 m 44.54760˚ 7.62332˚ 86 nm 239 nm 1° / 1° LEVALDIGI

Altitude Profile

Advertisement - Login to hide

Weather


0- 5 10 15 20 25 30 35+ Temperature / ° C

Clouds and Precipitation
Forecast for 2017-12-19 00:00 UTC. Updated an hour ago

Ground ~20,000 ft ~40,000 ft Winds

LIEA

Details ICAO LIEA (AHO)
Name ALGHERO
Region Italy
Timezone Europe/Rome (UTC+1.0)
Stats Elevation 87 ft / 27 m (AMSL)
Location 40.632132° 8.290774°
Runways 1
Magnetic Variation 2.195° E

METAR

LIEA 182020Z 14005KT 9999 -RA FEW035 07/06 Q1022

Decode

TAF

TAF LIEA 181700Z 1818/1918 25010KT 9999 SCT020 BKN050 TEMPO 1818/1824 SHRA BECMG 1822/1824 04010KT

Decode

Departure Runways

ID Width Length Bearing (true) Bearing (mag) Surface Threshold Offset Overrun Length
02 148 ft / 45 m 9,854 ft / 3,004 m 24.51° 22.31° Asphalt 0 ft / 0 m 0 ft / 0 m
20 148 ft / 45 m 9,854 ft / 3,004 m 204.52° 202.32° Asphalt 0 ft / 0 m 0 ft / 0 m

LIMZ

Details ICAO LIMZ (CUF)
Name LEVALDIGI
Region Italy
Timezone Europe/Rome (UTC+1.0)
Stats Elevation 1,267 ft / 386 m (AMSL)
Location 44.547603° 7.623322°
Runways 1
Magnetic Variation 2.114° E

METAR

LIMZ 181950Z 22008KT 9999 FEW050 M06/M11 Q1025

Decode

TAF

TAF AMD LIMZ 182026Z 1818/1918 CNL

Decode

Destination Runways

ID Width Length Bearing (true) Bearing (mag) Surface Threshold Offset Overrun Length
03 148 ft / 45 m 6,903 ft / 2,104 m 32.49° 30.38° Asphalt 0 ft / 0 m 696 ft / 212 m
21 148 ft / 45 m 6,903 ft / 2,104 m 212.50° 210.39° Asphalt 0 ft / 0 m 581 ft / 177 m

Approach Navaids

Runway Type Ident Frequency Range Bearing (true) Bearing (mag) Slope Elevation
21 Localiser LEV 110.95 MHz 18 nm / 33 km 212.50° 210.38° - 1,267 ft / 386 m (AMSL)
21 Glidescope LEV 110.95 MHz 10 nm / 19 km 212.50° 210.38° 3.00° 1,267 ft / 386 m (AMSL)